Decatur, IL (62521)

3:10 PM CDT on March 25, 2017 (GMT -0500)
Sandhill Dr. | | Change Station

Elev 676 ft 39.82 °N, 88.92 °W | Updated 1 second ago

Overcast
Overcast
67.3 °F
Feels Like 67.3 °F
N
7.6
Wind Variable Wind from SSE
Gusts 11.4 mph

Today
High -- | Low -- °F
--% Chance of Precip.
Yesterday
High -- | Low -- °F
Precip. -- in
Pressure 29.89 in
Visibility 10.0 miles
Clouds Overcast 4000 ft
Dew Point 61 °F
Humidity 81%
Rainfall 0.02 in
Snow Depth Not available.
6:50 AM 7:13 PM
Waning Crescent, 7% visible
METAR KDEC 251954Z 17011KT 10SM OVC040 19/11 A2989 RMK AO2 SLP120 T01940111 $
Pressure 29.89 in
Visibility 10.0 miles
Clouds Overcast 4000 ft
Dew Point 61 °F
Humidity 81%
Rainfall 0.02 in
Snow Depth Not available.
6:50 AM 7:13 PM
Waning Crescent, 7% visible
METAR KDEC 251954Z 17011KT 10SM OVC040 19/11 A2989 RMK AO2 SLP120 T01940111 $

Get Severe Weather Alerts

Thanks for signing up!

Be on the lookout for a verification email in your inbox.

You'll start receiving the daily forecast at 8 AM.

×

10-Day Weather Forecast

Almanac

Astronomy

Mar. 25, 2017 Rise Set
Actual Time
Civil Twilight
Nautical Twilight
Astronomical Twilight
Moon
Length of Visible Light
Length of Day
Tomorrow will be .
, % of the Moon is Illuminated

Today's Extremes

State Highs State Lows

Community

WunderPhotos

Upload Photos

1,962,540 photos uploaded!

WunderBlog® & News

Nearby

Air Quality

  Air Quality AQ Index Pollutant
Not available.

Snow Depth

Station Depth Elevation

Earthquake Activity

City Distance Mag. Time & Date
Minimum magnitude displayed is 2.5.

Earthquake Activity

City Distance Mag. Time & Date
Minimum magnitude displayed is 2.5.

Coastal Water Temperatures

Place Temperature

Stations

Nearby Weather Stations

Station Location Temp. Windchill Dew Point Humidity Wind Precip. Elev Updated Type
                   

Watches & Warnings

There are currently no watches in effect.